Time;durP1;ratioP1;P1;durP2;ratioP2;P2;SDS_P1;SDS_P2;PMS_P1;PMS_P2;Temp;Humidity;BMP_temperature;BMP_pressure;BME280_temperature;BME280_humidity;BME280_pressure;Samples;Min_cycle;Max_cycle;Signal;HPM_P1;HPM_P2
2024/01/20 00:00:59;;;;;;;18.00;11.50;;;-0.10;99.90;;;;;;5066271;28;20203;-81
2024/01/20 00:03:27;;;;;;;20.53;12.70;;;-0.10;99.90;;;;;;5060501;28;20232;-81
2024/01/20 00:05:54;;;;;;;20.80;11.73;;;-0.10;99.90;;;;;;5065730;28;20210;-80
2024/01/20 00:08:22;;;;;;;20.40;11.30;;;-0.10;99.90;;;;;;5077729;28;20185;-80
2024/01/20 00:10:49;;;;;;;18.10;11.47;;;-0.10;99.90;;;;;;5059713;28;20203;-80
2024/01/20 00:13:17;;;;;;;19.20;12.03;;;-0.10;99.90;;;;;;5077436;28;20222;-80
2024/01/20 00:15:44;;;;;;;20.20;12.03;;;-0.10;99.90;;;;;;5060471;28;20677;-80
2024/01/20 00:18:13;;;;;;;20.17;11.50;;;-0.20;99.90;;;;;;5066690;28;20206;-80
2024/01/20 00:20:42;;;;;;;16.63;11.23;;;-0.10;99.90;;;;;;5066348;28;20212;-80
2024/01/20 00:23:09;;;;;;;17.83;10.60;;;-0.10;99.90;;;;;;5066596;28;20223;-82
2024/01/20 00:25:37;;;;;;;19.20;11.40;;;-0.10;99.90;;;;;;5059080;28;20729;-81
2024/01/20 00:28:04;;;;;;;19.63;11.93;;;-0.20;99.90;;;;;;5058516;28;20200;-81
2024/01/20 00:30:32;;;;;;;16.70;10.50;;;-0.20;99.90;;;;;;5066655;28;20686;-81
2024/01/20 00:33:00;;;;;;;15.43;10.67;;;-0.20;99.90;;;;;;5058475;28;20675;-81
2024/01/20 00:35:28;;;;;;;17.83;11.27;;;-0.30;99.90;;;;;;5065789;28;20211;-81
2024/01/20 00:37:56;;;;;;;15.70;10.40;;;-0.20;99.90;;;;;;5065953;28;20200;-81
2024/01/20 00:40:24;;;;;;;20.00;10.10;;;-0.20;99.90;;;;;;5074902;28;20210;-81
2024/01/20 00:42:55;;;;;;;17.77;11.27;;;-0.20;99.90;;;;;;5078601;28;20217;-81
2024/01/20 00:45:23;;;;;;;16.30;9.90;;;-0.20;99.90;;;;;;5059843;28;20225;-81
2024/01/20 00:47:50;;;;;;;18.93;10.27;;;-0.30;99.90;;;;;;5075022;28;20203;-81
2024/01/20 00:50:19;;;;;;;15.33;10.23;;;-0.30;99.90;;;;;;5076640;28;20557;-81
2024/01/20 00:52:48;;;;;;;18.00;10.17;;;-0.30;99.90;;;;;;5058178;28;20219;-81
2024/01/20 00:55:16;;;;;;;15.10;10.40;;;-0.30;99.90;;;;;;5059824;28;20206;-80
2024/01/20 00:57:44;;;;;;;19.53;11.23;;;-0.40;99.90;;;;;;5064485;28;20202;-80
2024/01/20 01:00:12;;;;;;;18.70;10.47;;;-0.40;99.90;;;;;;5070179;28;20584;-81
2024/01/20 01:02:40;;;;;;;17.33;11.47;;;-0.40;99.90;;;;;;5069401;28;20208;-81
2024/01/20 01:05:09;;;;;;;19.03;12.10;;;-0.50;99.90;;;;;;5069090;28;20207;-81
2024/01/20 01:07:37;;;;;;;17.03;10.30;;;-0.50;99.90;;;;;;5070230;28;20222;-81
2024/01/20 01:10:07;;;;;;;17.40;10.60;;;-0.30;99.90;;;;;;5063776;28;20213;-81
2024/01/20 01:12:35;;;;;;;13.83;9.40;;;-0.40;99.90;;;;;;5076028;28;20199;-81
2024/01/20 01:15:03;;;;;;;20.83;10.63;;;-0.50;99.90;;;;;;5057090;28;20226;-81
2024/01/20 01:17:32;;;;;;;18.83;10.83;;;-0.40;99.90;;;;;;5077732;28;20193;-81
2024/01/20 01:20:00;;;;;;;16.97;10.13;;;-0.40;99.90;;;;;;5058429;28;20203;-81
2024/01/20 01:22:27;;;;;;;16.30;10.47;;;-0.40;99.90;;;;;;5058796;28;20208;-81
2024/01/20 01:24:55;;;;;;;17.27;10.83;;;-0.40;99.90;;;;;;5065984;28;20199;-81
2024/01/20 01:27:23;;;;;;;16.47;11.03;;;-0.50;99.90;;;;;;5057718;28;20557;-81
2024/01/20 01:29:50;;;;;;;20.03;10.67;;;-0.50;99.90;;;;;;5057173;28;20788;-81
2024/01/20 01:32:17;;;;;;;18.33;10.83;;;-0.50;99.90;;;;;;5058675;28;20204;-80
2024/01/20 01:34:45;;;;;;;17.87;11.77;;;-0.50;99.90;;;;;;5061416;28;20221;-80
2024/01/20 01:37:12;;;;;;;19.23;11.30;;;-0.50;99.90;;;;;;5060241;28;20186;-80
2024/01/20 01:39:42;;;;;;;18.30;10.93;;;-0.50;99.90;;;;;;5053825;28;20205;-80
2024/01/20 01:42:10;;;;;;;15.83;11.03;;;-0.60;99.90;;;;;;5064300;28;20206;-80
2024/01/20 01:44:39;;;;;;;17.93;10.70;;;-0.50;99.90;;;;;;5056858;28;20222;-80
2024/01/20 01:47:06;;;;;;;20.40;11.13;;;-0.60;99.90;;;;;;5059823;28;20203;-80
2024/01/20 01:49:34;;;;;;;22.03;11.87;;;-0.60;99.90;;;;;;5053958;28;20216;-80
2024/01/20 01:52:01;;;;;;;25.03;11.43;;;-0.60;99.90;;;;;;5057337;28;20594;-80
2024/01/20 01:54:29;;;;;;;20.13;11.63;;;-0.60;99.90;;;;;;5056966;28;20213;-80
2024/01/20 01:57:00;;;;;;;19.87;12.03;;;-0.70;99.90;;;;;;5078312;28;20196;-80
2024/01/20 01:59:29;;;;;;;17.27;11.53;;;-0.60;99.90;;;;;;5054041;28;20190;-82
2024/01/20 02:01:58;;;;;;;21.17;11.87;;;-0.60;99.90;;;;;;5054659;28;20201;-81
2024/01/20 02:04:26;;;;;;;19.43;11.30;;;-0.70;99.90;;;;;;5057007;28;20221;-81
2024/01/20 02:06:53;;;;;;;17.43;11.40;;;-0.70;99.90;;;;;;5057376;28;20214;-80
2024/01/20 02:09:22;;;;;;;19.57;11.90;;;-0.80;99.90;;;;;;5066880;28;20677;-81
2024/01/20 02:11:50;;;;;;;17.70;10.47;;;-0.80;99.90;;;;;;5057257;28;20209;-81
2024/01/20 02:14:18;;;;;;;20.73;12.00;;;-0.80;99.90;;;;;;5057683;28;20224;-81
2024/01/20 02:16:45;;;;;;;19.27;12.33;;;-0.80;99.90;;;;;;5057510;28;20654;-82
2024/01/20 02:19:14;;;;;;;14.70;10.90;;;-0.80;99.90;;;;;;5064474;28;20218;-82
2024/01/20 02:21:42;;;;;;;18.17;11.57;;;-0.80;99.90;;;;;;5046095;28;20194;-82
2024/01/20 02:24:12;;;;;;;18.40;11.70;;;-0.80;99.90;;;;;;5064787;28;20236;-82
2024/01/20 02:26:39;;;;;;;17.10;11.13;;;-0.80;99.90;;;;;;5048571;28;20218;-82
2024/01/20 02:29:06;;;;;;;19.40;10.90;;;-0.70;99.90;;;;;;5058428;28;20670;-82
2024/01/20 02:31:34;;;;;;;22.73;12.17;;;-0.90;99.90;;;;;;5056278;28;20203;-82
2024/01/20 02:34:02;;;;;;;21.90;12.63;;;-0.90;99.90;;;;;;5056310;28;20216;-82
2024/01/20 02:36:29;;;;;;;21.53;11.23;;;-1.00;99.90;;;;;;5062513;28;20194;-82
2024/01/20 02:38:57;;;;;;;16.27;10.57;;;-1.00;99.90;;;;;;5051859;28;20198;-82
2024/01/20 02:41:25;;;;;;;18.60;11.73;;;-0.90;99.90;;;;;;5055375;28;20317;-82
2024/01/20 02:43:53;;;;;;;21.93;12.20;;;-1.00;99.90;;;;;;5055730;28;20237;-82
2024/01/20 02:46:20;;;;;;;20.33;11.57;;;-1.10;99.90;;;;;;5057633;28;20220;-82
2024/01/20 02:48:48;;;;;;;14.77;9.90;;;-1.00;99.90;;;;;;5058567;28;20201;-82
2024/01/20 02:51:15;;;;;;;21.47;11.77;;;-1.10;99.90;;;;;;5059963;28;20377;-82
2024/01/20 02:53:43;;;;;;;19.80;11.77;;;-1.10;99.90;;;;;;5057143;28;20218;-82
2024/01/20 02:56:26;;;;;;;20.40;13.00;;;-1.10;99.90;;;;;;5062334;28;20198;-82
2024/01/20 02:59:03;;;;;;;14.93;10.47;;;-1.10;99.90;;;;;;5074221;28;20221;-82
2024/01/20 03:01:32;;;;;;;18.77;11.67;;;-1.20;99.90;;;;;;5053805;28;20217;-82
2024/01/20 03:04:01;;;;;;;18.23;12.27;;;-1.10;99.90;;;;;;5088985;28;20214;-82
2024/01/20 03:06:28;;;;;;;19.10;11.03;;;-1.10;99.90;;;;;;5055216;28;20281;-82
2024/01/20 03:08:56;;;;;;;17.43;11.97;;;-1.20;99.90;;;;;;5073890;28;20198;-82
2024/01/20 03:11:24;;;;;;;20.70;12.70;;;-1.20;99.90;;;;;;5068734;28;20211;-82
2024/01/20 03:13:52;;;;;;;16.37;11.60;;;-1.30;99.90;;;;;;5055491;28;20221;-82
2024/01/20 03:16:20;;;;;;;22.53;12.27;;;-1.20;99.90;;;;;;5074397;28;20194;-82
2024/01/20 03:18:48;;;;;;;15.37;9.83;;;-1.20;99.90;;;;;;5058235;28;20207;-82
2024/01/20 03:21:15;;;;;;;17.10;10.60;;;-1.30;99.90;;;;;;5059990;28;20216;-83
2024/01/20 03:23:44;;;;;;;18.30;11.77;;;-1.20;99.90;;;;;;5057461;28;20224;-82
2024/01/20 03:26:11;;;;;;;18.53;12.57;;;-1.30;99.90;;;;;;5059710;28;20212;-82
2024/01/20 03:28:40;;;;;;;17.83;11.60;;;-1.30;99.90;;;;;;5059358;28;20236;-82
2024/01/20 03:31:10;;;;;;;17.60;12.13;;;-1.30;99.90;;;;;;5054874;28;20199;-82
2024/01/20 03:33:39;;;;;;;17.70;10.93;;;-1.30;99.90;;;;;;5055498;28;20685;-82
2024/01/20 03:36:07;;;;;;;18.33;10.57;;;-1.40;99.90;;;;;;5076912;28;20205;-82
2024/01/20 03:38:34;;;;;;;17.90;11.23;;;-1.30;99.90;;;;;;5060825;28;20205;-82
2024/01/20 03:41:02;;;;;;;20.90;11.27;;;-1.30;99.90;;;;;;5060304;28;20688;-82
2024/01/20 03:43:29;;;;;;;17.33;11.20;;;-1.30;99.90;;;;;;5061193;28;20213;-82
2024/01/20 03:45:57;;;;;;;20.80;12.03;;;-1.40;99.90;;;;;;5060622;28;20198;-82
2024/01/20 03:48:24;;;;;;;19.30;12.40;;;-1.30;99.90;;;;;;5060237;28;20209;-82
2024/01/20 03:51:01;;;;;;;18.57;11.97;;;-1.40;99.90;;;;;;5059861;28;20204;-82
2024/01/20 03:53:29;;;;;;;21.33;12.23;;;-1.50;99.90;;;;;;5060551;28;20220;-82
2024/01/20 03:55:56;;;;;;;20.37;12.33;;;-1.40;99.90;;;;;;5059844;28;20202;-82
2024/01/20 03:58:24;;;;;;;18.17;12.13;;;-1.50;99.90;;;;;;5059415;28;20201;-82
2024/01/20 04:00:51;;;;;;;18.77;11.33;;;-1.50;99.90;;;;;;5058939;28;20201;-82
2024/01/20 04:03:19;;;;;;;19.27;12.10;;;-1.60;99.90;;;;;;5059211;28;20694;-82
2024/01/20 04:05:47;;;;;;;21.70;13.40;;;-1.50;99.90;;;;;;5077296;28;20188;-82
2024/01/20 04:08:16;;;;;;;23.90;13.70;;;-1.50;99.90;;;;;;5058920;28;20217;-82
2024/01/20 04:10:43;;;;;;;18.13;10.77;;;-1.50;99.90;;;;;;5048102;28;20198;-82
2024/01/20 04:13:11;;;;;;;22.83;11.73;;;-1.50;99.90;;;;;;5039434;28;20214;-82
2024/01/20 04:15:38;;;;;;;22.50;12.80;;;-1.60;99.90;;;;;;5058146;28;20651;-82
2024/01/20 04:18:06;;;;;;;16.13;9.43;;;-1.50;99.90;;;;;;5059016;28;20341;-82
2024/01/20 04:20:33;;;;;;;21.10;12.17;;;-1.50;99.90;;;;;;5058199;28;20667;-82
2024/01/20 04:23:03;;;;;;;20.43;12.67;;;-1.40;99.90;;;;;;5058988;28;20226;-82
2024/01/20 04:25:34;;;;;;;21.30;12.83;;;-1.40;99.90;;;;;;5058977;28;20219;-82
2024/01/20 04:28:02;;;;;;;20.57;11.60;;;-1.40;99.90;;;;;;5059509;28;20217;-82
2024/01/20 04:30:29;;;;;;;20.90;12.17;;;-1.40;99.90;;;;;;5058853;28;20212;-82
2024/01/20 04:32:57;;;;;;;18.67;10.70;;;-1.40;99.90;;;;;;5059304;28;20217;-82
2024/01/20 04:35:24;;;;;;;18.40;11.60;;;-1.40;99.90;;;;;;5058647;28;20193;-82
2024/01/20 04:37:52;;;;;;;20.37;11.87;;;-1.30;99.90;;;;;;5059880;28;20194;-82
2024/01/20 04:40:19;;;;;;;17.83;11.80;;;-1.40;99.90;;;;;;5057129;28;20554;-82
2024/01/20 04:42:48;;;;;;;18.07;11.57;;;-1.50;99.90;;;;;;5066056;28;20648;-82
2024/01/20 04:45:16;;;;;;;19.00;11.27;;;-1.50;99.90;;;;;;5058854;28;20202;-82
2024/01/20 04:47:43;;;;;;;22.10;13.43;;;-1.50;99.90;;;;;;5058102;28;20216;-82
2024/01/20 04:50:11;;;;;;;21.60;12.77;;;-1.40;99.90;;;;;;5060710;28;20197;-82
2024/01/20 04:52:47;;;;;;;22.07;11.90;;;-1.40;99.90;;;;;;5057071;28;20655;-82
2024/01/20 04:55:15;;;;;;;16.70;9.57;;;-1.40;99.90;;;;;;5055666;28;20197;-82
2024/01/20 04:57:42;;;;;;;20.40;11.70;;;-1.50;99.90;;;;;;5092839;28;20193;-82
2024/01/20 05:00:12;;;;;;;20.10;11.07;;;-1.50;99.90;;;;;;5058058;28;20194;-82
2024/01/20 05:02:40;;;;;;;20.53;12.60;;;-1.40;99.90;;;;;;5058496;28;20198;-81
2024/01/20 05:05:08;;;;;;;15.17;10.13;;;-1.40;99.90;;;;;;5059313;28;20205;-81
2024/01/20 05:07:35;;;;;;;18.97;11.63;;;-1.40;99.90;;;;;;5059088;28;20718;-82
2024/01/20 05:10:03;;;;;;;18.77;11.50;;;-1.40;99.90;;;;;;5057093;28;20196;-82
2024/01/20 05:12:31;;;;;;;20.90;12.53;;;-1.40;99.90;;;;;;5057861;28;20198;-82
2024/01/20 05:14:58;;;;;;;18.47;11.70;;;-1.50;99.90;;;;;;5059467;28;20647;-82
2024/01/20 05:17:29;;;;;;;19.00;11.27;;;-1.40;99.90;;;;;;5058610;28;20208;-82
2024/01/20 05:19:57;;;;;;;18.97;12.07;;;-1.40;99.90;;;;;;5058315;28;20657;-82
2024/01/20 05:22:24;;;;;;;16.27;9.90;;;-1.40;99.90;;;;;;5060045;28;20204;-82
2024/01/20 05:24:52;;;;;;;19.93;11.23;;;-1.40;99.90;;;;;;5077651;28;20197;-82
2024/01/20 05:27:19;;;;;;;21.17;12.00;;;-1.30;99.90;;;;;;5059251;28;20212;-82
2024/01/20 05:29:47;;;;;;;19.27;11.63;;;-1.40;99.90;;;;;;5058652;28;20201;-82
2024/01/20 05:32:16;;;;;;;18.23;10.53;;;-1.40;99.90;;;;;;5057500;28;20208;-82
2024/01/20 05:34:46;;;;;;;22.60;11.53;;;-1.30;99.90;;;;;;5058438;28;20587;-82
2024/01/20 05:37:14;;;;;;;14.40;10.40;;;-1.30;99.90;;;;;;5059051;28;20194;-82
2024/01/20 05:39:41;;;;;;;17.33;10.73;;;-1.40;99.90;;;;;;5058977;28;20206;-82
2024/01/20 05:42:08;;;;;;;17.17;11.40;;;-1.30;99.90;;;;;;5054723;28;20216;-82
2024/01/20 05:44:36;;;;;;;17.23;11.00;;;-1.30;99.90;;;;;;5078165;28;20284;-81
2024/01/20 05:47:04;;;;;;;18.27;11.23;;;-1.20;99.90;;;;;;5060595;28;20205;-81
2024/01/20 05:49:31;;;;;;;18.10;10.90;;;-1.30;99.90;;;;;;5056930;28;20221;-81
2024/01/20 05:52:00;;;;;;;21.07;11.37;;;-1.20;99.90;;;;;;5056614;28;20197;-81
2024/01/20 05:54:28;;;;;;;18.13;11.30;;;-1.30;99.90;;;;;;5057512;28;20228;-81
2024/01/20 05:56:55;;;;;;;18.47;11.33;;;-1.30;99.90;;;;;;5046123;28;20190;-81
2024/01/20 05:59:22;;;;;;;19.13;11.97;;;-1.30;99.90;;;;;;5053567;28;20572;-81
2024/01/20 06:01:51;;;;;;;19.57;11.33;;;-1.30;99.90;;;;;;5056121;28;20200;-81
2024/01/20 06:04:18;;;;;;;16.20;10.90;;;-1.40;99.90;;;;;;5056296;28;20228;-81
2024/01/20 06:06:46;;;;;;;20.30;12.33;;;-1.40;99.90;;;;;;5062587;28;20203;-81
2024/01/20 06:09:15;;;;;;;20.47;12.30;;;-1.50;99.90;;;;;;5057687;28;20220;-81
2024/01/20 06:11:43;;;;;;;19.03;11.10;;;-1.50;99.90;;;;;;5057432;28;20212;-81
2024/01/20 06:14:10;;;;;;;20.20;11.63;;;-1.50;99.90;;;;;;5055235;28;20217;-81
2024/01/20 06:16:38;;;;;;;13.83;9.57;;;-1.50;99.90;;;;;;5064955;28;20303;-81
2024/01/20 06:19:06;;;;;;;17.53;9.60;;;-1.60;99.90;;;;;;5085066;28;20199;-81
2024/01/20 06:21:34;;;;;;;16.33;10.33;;;-1.70;99.90;;;;;;5070936;28;20194;-81
2024/01/20 06:24:02;;;;;;;19.93;11.33;;;-1.60;99.90;;;;;;5070028;28;20216;-81
2024/01/20 06:26:32;;;;;;;13.93;9.10;;;-1.70;99.90;;;;;;5070244;28;20201;-81
2024/01/20 06:29:04;;;;;;;19.60;10.33;;;-1.70;99.90;;;;;;5057432;28;20213;-81
2024/01/20 06:31:31;;;;;;;18.47;10.43;;;-1.80;99.90;;;;;;5052867;28;20200;-81
2024/01/20 06:33:58;;;;;;;19.97;11.63;;;-1.80;99.90;;;;;;5055859;28;20228;-81
2024/01/20 06:36:26;;;;;;;19.57;11.00;;;-1.80;99.90;;;;;;5068868;28;20194;-81
2024/01/20 06:38:55;;;;;;;18.53;11.70;;;-1.70;99.90;;;;;;5064731;28;20192;-81
2024/01/20 06:41:22;;;;;;;14.23;9.67;;;-1.70;99.90;;;;;;5056121;28;20198;-81
2024/01/20 06:43:51;;;;;;;18.17;10.67;;;-1.70;99.90;;;;;;5057500;28;20232;-81
2024/01/20 06:46:19;;;;;;;14.10;8.03;;;-1.60;99.90;;;;;;5059279;28;20205;-81
2024/01/20 06:48:48;;;;;;;21.27;10.10;;;-1.70;99.90;;;;;;5071141;28;20216;-81
2024/01/20 06:51:16;;;;;;;20.57;10.77;;;-1.70;99.90;;;;;;5060391;28;20197;-81
2024/01/20 06:53:47;;;;;;;17.83;11.47;;;-1.70;99.90;;;;;;5062152;28;20224;-80
2024/01/20 06:56:15;;;;;;;17.00;11.30;;;-1.70;99.90;;;;;;5056683;28;20190;-81
2024/01/20 06:58:43;;;;;;;18.90;10.03;;;-1.80;99.90;;;;;;5064430;28;20201;-81
2024/01/20 07:01:12;;;;;;;13.37;8.43;;;-1.90;99.90;;;;;;5068892;28;20197;-80
2024/01/20 07:03:47;;;;;;;18.83;11.50;;;-1.80;99.90;;;;;;5059170;28;20226;-80
2024/01/20 07:06:15;;;;;;;17.00;10.10;;;-1.80;99.90;;;;;;5052640;28;20196;-81
2024/01/20 07:08:43;;;;;;;17.60;10.50;;;-1.60;99.90;;;;;;5054969;28;20578;-80
2024/01/20 07:14:43;;;;;;;16.20;10.10;;;-1.70;99.90;;;;;;4999830;28;20227;-80
2024/01/20 07:17:12;;;;;;;19.27;11.07;;;-1.90;99.90;;;;;;5018560;28;20197;-79
2024/01/20 07:19:39;;;;;;;20.93;11.33;;;-1.90;99.90;;;;;;5053241;28;20200;-79
2024/01/20 07:22:07;;;;;;;19.73;11.07;;;-1.90;99.90;;;;;;5052709;28;20198;-79
2024/01/20 07:24:34;;;;;;;17.93;11.57;;;-1.80;99.90;;;;;;5053493;28;20736;-79
2024/01/20 07:27:18;;;;;;;16.33;10.53;;;-1.90;99.90;;;;;;5052883;28;20280;-79
2024/01/20 07:29:51;;;;;;;14.63;9.97;;;-1.90;99.90;;;;;;5061259;28;20217;-78
2024/01/20 07:32:26;;;;;;;19.90;11.13;;;-1.90;99.90;;;;;;5054244;28;20206;-78
2024/01/20 07:34:55;;;;;;;17.33;10.37;;;-1.90;99.90;;;;;;5052992;28;20201;-78
2024/01/20 07:37:25;;;;;;;18.43;10.23;;;-1.90;99.90;;;;;;5058421;28;20673;-79
2024/01/20 07:39:53;;;;;;;19.43;10.60;;;-1.90;99.90;;;;;;5053934;28;20194;-79
2024/01/20 07:42:28;;;;;;;19.20;11.33;;;-2.00;99.90;;;;;;5053381;28;20197;-79
2024/01/20 07:45:03;;;;;;;16.80;10.07;;;-2.00;99.90;;;;;;5054470;28;20212;-78
2024/01/20 07:47:33;;;;;;;17.40;10.77;;;-2.00;99.90;;;;;;5074628;28;20193;-78
2024/01/20 07:50:15;;;;;;;17.87;10.03;;;-1.80;99.90;;;;;;5056160;28;20642;-79
2024/01/20 07:52:43;;;;;;;21.63;11.70;;;-1.70;99.90;;;;;;5057701;28;20204;-79
2024/01/20 07:55:15;;;;;;;16.07;11.30;;;-1.70;99.90;;;;;;5047674;28;20658;-79
2024/01/20 07:57:42;;;;;;;16.33;10.53;;;-1.80;99.90;;;;;;5050724;28;20205;-79
2024/01/20 08:00:45;;;;;;;17.10;11.00;;;-1.80;99.90;;;;;;5079548;28;20197;-78
2024/01/20 08:03:14;;;;;;;19.03;11.33;;;-1.80;99.90;;;;;;5051073;28;20226;-79
2024/01/20 08:05:46;;;;;;;17.70;10.03;;;-1.80;99.90;;;;;;5061738;28;20198;-79
2024/01/20 08:08:14;;;;;;;20.43;10.47;;;-1.90;99.90;;;;;;5048808;28;20544;-79
2024/01/20 08:10:41;;;;;;;17.07;10.60;;;-1.80;99.90;;;;;;5050659;28;20212;-78
2024/01/20 08:13:09;;;;;;;13.90;9.00;;;-1.70;99.90;;;;;;5053181;28;20221;-79
2024/01/20 08:15:37;;;;;;;14.27;10.23;;;-1.80;99.90;;;;;;5085745;28;20209;-79
2024/01/20 08:18:05;;;;;;;16.57;10.23;;;-1.70;99.90;;;;;;5089830;28;20206;-79
2024/01/20 08:20:34;;;;;;;16.07;9.87;;;-1.70;99.90;;;;;;5050306;28;20190;-79
2024/01/20 08:23:01;;;;;;;15.10;9.93;;;-1.60;99.90;;;;;;5091414;28;20678;-78
2024/01/20 08:25:29;;;;;;;16.57;10.20;;;-1.60;99.90;;;;;;5060473;28;20232;-78
2024/01/20 08:28:13;;;;;;;16.23;9.63;;;-1.60;99.90;;;;;;5087864;28;20196;-78
2024/01/20 08:30:41;;;;;;;18.73;10.17;;;-1.50;99.90;;;;;;5053618;28;20224;-78
2024/01/20 08:33:08;;;;;;;17.63;9.47;;;-1.50;99.90;;;;;;5060221;28;20718;-78
2024/01/20 08:35:37;;;;;;;15.00;9.67;;;-1.50;99.90;;;;;;5057300;28;20193;-78
2024/01/20 08:38:05;;;;;;;15.13;8.50;;;-1.50;99.90;;;;;;5071499;28;20197;-78
2024/01/20 08:40:32;;;;;;;14.63;8.83;;;-1.40;99.90;;;;;;5053226;28;20201;-78
2024/01/20 08:42:59;;;;;;;17.57;9.77;;;-1.40;99.90;;;;;;5051788;28;20237;-78
2024/01/20 08:45:27;;;;;;;13.70;8.80;;;-1.30;99.90;;;;;;5058663;28;20208;-78
2024/01/20 08:48:08;;;;;;;14.17;8.93;;;-1.20;99.90;;;;;;5072200;28;20216;-78
2024/01/20 08:50:37;;;;;;;14.83;8.83;;;-1.10;99.90;;;;;;5060850;28;20213;-78
2024/01/20 08:53:21;;;;;;;14.27;9.70;;;-1.00;99.90;;;;;;5057950;28;20555;-78
2024/01/20 08:55:50;;;;;;;12.50;8.40;;;-0.80;99.90;;;;;;5062463;28;20209;-78
2024/01/20 08:58:18;;;;;;;16.83;9.33;;;-0.80;99.90;;;;;;5060128;28;20201;-77
2024/01/20 09:00:46;;;;;;;12.97;8.00;;;-0.80;99.90;;;;;;5063065;28;20651;-77
2024/01/20 09:03:15;;;;;;;14.77;8.90;;;-0.80;99.90;;;;;;5050103;28;20226;-78
2024/01/20 09:05:44;;;;;;;15.10;8.30;;;-0.80;99.90;;;;;;5018202;28;20238;-78
2024/01/20 09:08:11;;;;;;;13.30;7.70;;;-0.70;99.90;;;;;;5048082;28;20214;-78
2024/01/20 09:10:40;;;;;;;14.00;8.43;;;-0.70;99.90;;;;;;5057968;28;20214;-77
2024/01/20 09:13:08;;;;;;;12.17;7.37;;;-0.60;99.90;;;;;;5055285;28;20218;-78
2024/01/20 09:15:35;;;;;;;11.73;6.97;;;-0.60;99.90;;;;;;5051400;28;20203;-78
2024/01/20 09:18:03;;;;;;;14.23;7.93;;;-0.50;99.90;;;;;;5084873;28;20205;-78
2024/01/20 09:20:31;;;;;;;13.47;8.13;;;-0.50;99.90;;;;;;5050373;28;20201;-78
2024/01/20 09:22:59;;;;;;;14.47;7.57;;;-0.50;99.90;;;;;;5055289;28;20223;-78
2024/01/20 09:25:27;;;;;;;12.57;7.77;;;-0.40;99.90;;;;;;5063618;28;20200;-78
2024/01/20 09:27:55;;;;;;;11.17;7.20;;;-0.30;99.90;;;;;;5058716;28;20199;-78
2024/01/20 09:30:22;;;;;;;14.63;8.80;;;-0.20;99.90;;;;;;5053858;28;20215;-77
2024/01/20 09:32:50;;;;;;;13.13;7.80;;;-0.20;99.90;;;;;;5054636;28;20230;-78
2024/01/20 09:35:17;;;;;;;13.33;7.50;;;-0.10;99.90;;;;;;5054909;28;20202;-78
2024/01/20 09:37:45;;;;;;;11.03;7.33;;;0.10;99.90;;;;;;5055915;28;20199;-79
2024/01/20 09:40:16;;;;;;;8.87;6.53;;;0.10;99.90;;;;;;5083728;28;20223;-78
2024/01/20 09:43:04;;;;;;;11.03;7.20;;;0.20;99.90;;;;;;5050855;28;20708;-78
2024/01/20 09:45:38;;;;;;;12.50;7.33;;;0.20;99.90;;;;;;5050419;28;20216;-78
2024/01/20 09:48:16;;;;;;;10.10;7.07;;;0.30;99.90;;;;;;5071814;28;20210;-78
2024/01/20 09:50:49;;;;;;;10.90;6.53;;;0.30;99.90;;;;;;5054178;28;20217;-78
2024/01/20 09:53:26;;;;;;;9.97;6.63;;;0.40;99.90;;;;;;5057505;28;20223;-78
2024/01/20 09:55:56;;;;;;;9.57;6.97;;;0.40;99.90;;;;;;5055530;28;20208;-78
2024/01/20 09:58:24;;;;;;;11.53;7.27;;;0.50;99.90;;;;;;5055708;28;20197;-78
2024/01/20 10:00:53;;;;;;;10.77;7.30;;;0.70;99.90;;;;;;5055464;28;20205;-79
2024/01/20 10:03:24;;;;;;;10.37;6.77;;;0.90;99.90;;;;;;5055110;28;20213;-78
2024/01/20 10:05:52;;;;;;;11.77;6.93;;;1.10;99.90;;;;;;5056130;28;20410;-78
2024/01/20 10:08:19;;;;;;;8.70;6.37;;;1.10;99.90;;;;;;5053161;28;20205;-77
2024/01/20 10:10:47;;;;;;;10.17;6.73;;;1.10;99.90;;;;;;5050675;28;20218;-78
2024/01/20 10:13:16;;;;;;;9.63;6.03;;;1.10;99.90;;;;;;5084280;28;20224;-78
2024/01/20 10:15:44;;;;;;;11.63;7.03;;;1.20;99.90;;;;;;5057594;28;20204;-79
2024/01/20 10:18:12;;;;;;;9.00;6.03;;;1.30;99.90;;;;;;5052079;28;20205;-78
2024/01/20 10:20:39;;;;;;;10.00;6.60;;;1.30;99.90;;;;;;5065467;28;20197;-78
2024/01/20 10:23:28;;;;;;;12.23;6.70;;;1.30;99.90;;;;;;5054808;28;20219;-78
2024/01/20 10:26:37;;;;;;;;;;;;;;;;;;;;;
2024/01/20 10:29:39;;;;;;;9.40;5.60;;;1.20;99.90;;;;;;5035498;28;20689;-78
2024/01/20 10:32:52;;;;;;;;;;;;;;;;;;;;;
2024/01/20 10:35:51;;;;;;;;;;;;;;;;;;;;;
2024/01/20 10:38:45;;;;;;;;;;;;;;;;;;;;;
2024/01/20 10:42:14;;;;;;;;;;;;;;;;;;;;;
2024/01/20 10:48:08;;;;;;;9.40;5.53;;;1.90;99.90;;;;;;5060333;28;20221;-78
2024/01/20 10:50:38;;;;;;;9.47;5.43;;;1.90;99.90;;;;;;5050475;28;20212;-78
2024/01/20 10:53:15;;;;;;;8.40;5.77;;;2.00;99.90;;;;;;5056189;28;20222;-78
2024/01/20 10:55:58;;;;;;;8.07;5.90;;;2.30;99.90;;;;;;5053932;28;20562;-78
2024/01/20 10:58:34;;;;;;;6.73;5.40;;;2.40;99.90;;;;;;5068665;28;20649;-78
2024/01/20 11:01:05;;;;;;;7.67;5.07;;;2.50;99.90;;;;;;5047915;28;20540;-79
2024/01/20 11:03:33;;;;;;;7.73;5.60;;;2.60;99.90;;;;;;5052021;28;20228;-78
2024/01/20 11:06:00;;;;;;;7.83;5.73;;;2.80;99.90;;;;;;5053791;28;20208;-78
2024/01/20 11:08:28;;;;;;;9.83;5.73;;;3.00;99.90;;;;;;5053682;28;20202;-78
2024/01/20 11:10:56;;;;;;;9.50;5.53;;;3.10;99.90;;;;;;5053269;28;20220;-79
2024/01/20 11:13:27;;;;;;;8.73;5.27;;;3.10;99.90;;;;;;5071952;28;20216;-78
2024/01/20 11:15:57;;;;;;;9.67;5.47;;;3.30;99.90;;;;;;5051729;28;20232;-78
2024/01/20 11:18:27;;;;;;;6.93;4.87;;;3.00;99.90;;;;;;5084712;28;20208;-79
2024/01/20 11:20:57;;;;;;;6.33;4.73;;;3.50;99.90;;;;;;5053437;28;20206;-79
2024/01/20 11:23:26;;;;;;;6.17;4.37;;;3.90;99.90;;;;;;5067411;28;20219;-79
2024/01/20 11:25:54;;;;;;;10.27;5.90;;;3.80;99.90;;;;;;5053208;28;20212;-77
2024/01/20 11:28:32;;;;;;;6.43;4.57;;;4.30;99.90;;;;;;5052999;28;20205;-77
2024/01/20 11:31:00;;;;;;;6.83;5.10;;;5.30;99.90;;;;;;5050809;28;20218;-77
2024/01/20 11:33:31;;;;;;;7.60;4.77;;;5.00;99.90;;;;;;5052610;28;20222;-77
2024/01/20 11:36:00;;;;;;;7.30;4.60;;;5.10;99.90;;;;;;5053953;28;20562;-79
2024/01/20 11:38:29;;;;;;;8.40;5.20;;;4.90;99.90;;;;;;5054630;28;20203;-78
2024/01/20 11:41:01;;;;;;;6.83;3.77;;;5.40;99.90;;;;;;5072034;28;20599;-80
2024/01/20 11:43:29;;;;;;;8.37;4.90;;;4.90;99.60;;;;;;5053340;28;20233;-78
2024/01/20 11:45:57;;;;;;;7.40;4.20;;;4.80;99.90;;;;;;5053923;28;20198;-78
2024/01/20 11:48:25;;;;;;;6.73;4.93;;;4.70;99.90;;;;;;5045375;28;20193;-77
2024/01/20 11:50:54;;;;;;;5.13;4.07;;;4.70;99.90;;;;;;5053247;28;20220;-79
2024/01/20 11:53:55;;;;;;;6.80;4.20;;;5.50;99.20;;;;;;5049691;28;20712;-78
2024/01/20 11:56:56;;;;;;;6.90;4.63;;;4.80;99.60;;;;;;5054060;28;20199;-78
2024/01/20 11:59:28;;;;;;;4.63;3.47;;;4.40;99.90;;;;;;5049029;28;20209;-78
2024/01/20 12:01:56;;;;;;;5.77;4.03;;;5.20;99.40;;;;;;5057165;28;20196;-78
2024/01/20 12:04:23;;;;;;;8.50;3.70;;;5.10;99.00;;;;;;5057102;28;20228;-79
2024/01/20 12:06:55;;;;;;;9.10;4.67;;;5.00;98.70;;;;;;5052517;28;20540;-78
2024/01/20 12:09:22;;;;;;;8.33;4.30;;;5.10;99.00;;;;;;5040207;28;20199;-78
2024/01/20 12:11:50;;;;;;;5.67;4.50;;;4.80;98.90;;;;;;5050425;28;20227;-78
2024/01/20 12:14:17;;;;;;;5.50;3.97;;;5.30;98.50;;;;;;5073244;28;20714;-78
2024/01/20 12:16:45;;;;;;;7.20;4.27;;;5.30;97.80;;;;;;5056986;28;20198;-78
2024/01/20 12:19:12;;;;;;;6.63;4.10;;;5.40;98.10;;;;;;5057147;28;20213;-79
2024/01/20 12:21:40;;;;;;;6.90;3.93;;;6.10;97.90;;;;;;5072751;28;20190;-78
2024/01/20 12:24:16;;;;;;;4.57;3.90;;;6.00;96.70;;;;;;5055520;28;20220;-78
2024/01/20 12:26:44;;;;;;;7.03;3.63;;;6.20;96.50;;;;;;5088440;28;20197;-78
2024/01/20 12:29:11;;;;;;;6.33;4.00;;;5.90;95.50;;;;;;5054973;28;20204;-78
2024/01/20 12:31:39;;;;;;;5.40;4.00;;;5.80;95.30;;;;;;5056209;28;20236;-78
2024/01/20 12:34:06;;;;;;;5.03;3.77;;;6.30;95.40;;;;;;5056361;28;20227;-78
2024/01/20 12:36:34;;;;;;;5.93;4.20;;;6.70;94.20;;;;;;5057031;28;20212;-78
2024/01/20 12:39:01;;;;;;;5.70;3.97;;;6.20;94.40;;;;;;5057461;28;20204;-78
2024/01/20 12:41:30;;;;;;;5.73;4.10;;;6.20;94.60;;;;;;5055803;28;20224;-78
2024/01/20 12:43:58;;;;;;;5.57;3.83;;;6.40;94.10;;;;;;5056466;28;20229;-77
2024/01/20 12:46:25;;;;;;;8.03;3.87;;;6.00;94.20;;;;;;5074966;28;20189;-78
2024/01/20 12:48:52;;;;;;;9.23;4.53;;;6.50;93.80;;;;;;5057162;28;20196;-78
2024/01/20 12:51:20;;;;;;;5.70;3.90;;;6.70;93.70;;;;;;5073766;28;20208;-78
2024/01/20 12:53:48;;;;;;;6.97;4.40;;;6.30;93.80;;;;;;5056708;28;20221;-78
2024/01/20 12:56:16;;;;;;;5.87;3.97;;;6.20;93.50;;;;;;5090125;28;20194;-78
2024/01/20 12:58:45;;;;;;;4.83;4.23;;;6.30;94.10;;;;;;5056993;28;20562;-78
2024/01/20 13:01:13;;;;;;;5.73;3.60;;;8.20;90.80;;;;;;5089023;28;20550;-78